Terminal Aerodrome Forecast
Issued by NWS

Home | Current Version | Previous Version | Text Only | Print | Product List | Glossary On
Versions: 1 2 3 4 5 6 7 8 9 10 11 12 13 14 15 16
224
FTUS43 KOAX 230631 AAA
TAFBFF
TAF AMD
KBFF 230631Z 2307/2406 04009KT P6SM -RASN OVC035
      TEMPO 2307/2309 5SM -RASN BKN015 OVC025
     FM230900 07013KT 4SM BR OVC007
     FM231300 09016G24KT 1/2SM SN FG OVC004
     FM232200 04014KT 2SM -SN OVC012=

USA.gov is the U.S. government's official web portal to all federal, state and local government web resources and services.